createdAt,value
2018-07-16T00:00:04.815Z,20.25
2018-07-16T00:15:09.173Z,20.12
2018-07-16T00:30:13.435Z,19.96
2018-07-16T00:45:17.800Z,19.79
2018-07-16T01:00:22.042Z,19.60
2018-07-16T01:15:26.493Z,19.22
2018-07-16T01:30:30.834Z,19.06
2018-07-16T01:45:35.230Z,18.95
2018-07-16T02:01:10.446Z,18.78
2018-07-16T02:16:14.786Z,18.52
2018-07-16T02:31:19.223Z,18.38
2018-07-16T02:46:23.801Z,18.31
2018-07-16T03:01:27.934Z,18.43
2018-07-16T03:16:32.138Z,18.37
2018-07-16T03:31:36.286Z,18.72
2018-07-16T03:46:40.519Z,19.24
2018-07-16T04:01:44.708Z,20.42
2018-07-16T04:16:48.966Z,21.43
2018-07-16T04:31:53.027Z,23.50
2018-07-16T04:46:57.246Z,24.64
2018-07-16T05:02:01.862Z,26.58
2018-07-16T05:17:06.077Z,26.48
2018-07-16T05:32:10.313Z,27.36
2018-07-16T05:47:14.786Z,28.42
2018-07-16T06:02:19.101Z,30.27
2018-07-16T06:17:23.443Z,31.32
2018-07-16T06:32:27.883Z,31.24
2018-07-16T06:47:32.147Z,31.13
2018-07-16T07:02:36.440Z,33.23
2018-07-16T07:17:40.920Z,33.27
2018-07-16T07:32:45.383Z,34.03
2018-07-16T07:47:49.600Z,32.60
2018-07-16T08:02:53.791Z,31.39
2018-07-16T08:17:58.182Z,33.83
2018-07-16T08:33:02.886Z,34.39
2018-07-16T08:48:07.188Z,36.25
2018-07-16T09:03:11.425Z,33.33
2018-07-16T09:18:15.774Z,34.60
2018-07-16T09:33:20.057Z,35.56
2018-07-16T09:48:24.310Z,36.01
2018-07-16T10:03:28.770Z,35.41
2018-07-16T10:18:33.266Z,36.18
2018-07-16T10:33:37.879Z,36.43
2018-07-16T10:48:42.373Z,36.00
2018-07-16T11:03:46.605Z,35.46
2018-07-16T11:18:50.946Z,34.87
2018-07-16T11:33:55.266Z,34.63
2018-07-16T11:48:59.602Z,34.28
2018-07-16T12:04:03.992Z,33.42
2018-07-16T12:19:08.345Z,32.49
2018-07-16T12:34:12.628Z,32.30
2018-07-16T12:49:16.924Z,33.17
2018-07-16T13:04:21.355Z,31.39
2018-07-16T13:19:25.425Z,31.15
2018-07-16T13:34:30.650Z,31.02
2018-07-16T13:49:34.894Z,30.49
2018-07-16T14:04:39.448Z,30.10
2018-07-16T14:19:44.058Z,29.85
2018-07-16T14:34:48.217Z,29.58
2018-07-16T14:49:52.208Z,29.27
2018-07-16T15:04:56.497Z,28.59
2018-07-16T15:20:01.066Z,28.66
2018-07-16T15:35:05.234Z,28.42
2018-07-16T15:50:09.727Z,27.60
